Time;durP1;ratioP1;P1;durP2;ratioP2;P2;SDS_P1;SDS_P2;PMS_P1;PMS_P2;Temp;Humidity;BMP_temperature;BMP_pressure;BME280_temperature;BME280_humidity;BME280_pressure;Samples;Min_cycle;Max_cycle;Signal;HPM_P1;HPM_P2
2022/04/17 00:02:03;;;;;;;1.20;1.10;;;;;9.60;97607.40;;;;110551;1254;41243;-59
2022/04/17 00:04:34;;;;;;;1.20;1.10;;;;;9.60;97611.40;;;;110809;1251;41409;-59
2022/04/17 00:07:04;;;;;;;2.00;1.30;;;;;9.50;97607.00;;;;110645;1252;42202;-59
2022/04/17 00:09:34;;;;;;;1.80;1.40;;;;;9.50;97614.00;;;;110530;1251;41491;-61
2022/04/17 00:12:05;;;;;;;1.10;1.10;;;;;9.40;97617.00;;;;110635;1251;41181;-62
2022/04/17 00:14:43;;;;;;;1.30;1.20;;;;;9.30;97619.00;;;;110665;1251;41137;-61
2022/04/17 00:17:13;;;;;;;1.50;1.20;;;;;9.20;97615.00;;;;110653;1251;41192;-61
2022/04/17 00:19:42;;;;;;;1.20;1.10;;;;;9.20;97619.80;;;;110570;1254;42088;-60
2022/04/17 00:22:13;;;;;;;2.40;1.30;;;;;9.10;97613.80;;;;110625;1251;41495;-60
2022/04/17 00:24:43;;;;;;;1.10;1.10;;;;;9.00;97621.20;;;;110634;1251;42521;-60
2022/04/17 00:27:14;;;;;;;2.00;1.30;;;;;8.94;97622.80;;;;110639;1251;41452;-60
2022/04/17 00:29:44;;;;;;;3.40;1.30;;;;;8.90;97623.20;;;;110756;1251;41155;-60
2022/04/17 00:32:14;;;;;;;1.60;1.30;;;;;8.90;97627.20;;;;110603;1251;41532;-60
2022/04/17 00:34:45;;;;;;;1.30;1.20;;;;;8.80;97623.20;;;;110675;1251;41275;-60
2022/04/17 00:37:15;;;;;;;1.40;1.20;;;;;8.80;97623.20;;;;110771;1251;41763;-60
2022/04/17 00:39:46;;;;;;;1.40;1.20;;;;;8.80;97622.80;;;;110847;1251;41254;-60
2022/04/17 00:42:17;;;;;;;1.20;1.20;;;;;8.70;97629.60;;;;110826;1251;41589;-59
2022/04/17 00:44:47;;;;;;;1.70;1.20;;;;;8.70;97626.00;;;;110791;1252;41158;-60
2022/04/17 00:47:18;;;;;;;1.30;1.20;;;;;8.60;97623.80;;;;110771;1251;41206;-60
2022/04/17 00:49:49;;;;;;;1.30;1.10;;;;;8.60;97630.60;;;;110557;1251;41466;-60
2022/04/17 00:52:22;;;;;;;;;;;;;8.60;97628.60;;;;110829;1251;41415;-60
2022/04/17 00:54:54;;;;;;;1.40;1.30;;;;;8.50;97628.00;;;;110844;1251;41152;-60
2022/04/17 00:57:24;;;;;;;1.10;1.10;;;;;8.50;97628.20;;;;110782;1251;41354;-60
2022/04/17 00:59:56;;;;;;;1.30;1.20;;;;;8.46;97631.80;;;;110794;1250;41670;-61
2022/04/17 01:02:27;;;;;;;1.40;1.30;;;;;8.40;97627.60;;;;110799;1250;41810;-60
2022/04/17 01:04:57;;;;;;;1.30;1.20;;;;;8.38;97623.20;;;;110800;1251;41959;-60
2022/04/17 01:07:27;;;;;;;;;;;;;8.30;97629.20;;;;110574;1251;41147;-61
2022/04/17 01:09:58;;;;;;;1.40;1.30;;;;;8.30;97634.20;;;;110788;1251;41141;-60
2022/04/17 01:12:28;;;;;;;1.20;1.20;;;;;8.20;97622.60;;;;110694;1251;41139;-60
2022/04/17 01:14:58;;;;;;;1.30;1.20;;;;;8.20;97621.20;;;;110828;1250;41917;-59
2022/04/17 01:17:28;;;;;;;2.20;1.30;;;;;8.20;97624.60;;;;110788;1251;41275;-59
2022/04/17 01:19:58;;;;;;;1.30;1.20;;;;;8.12;97622.00;;;;110723;1251;42084;-59
2022/04/17 01:22:28;;;;;;;1.40;1.30;;;;;8.10;97625.20;;;;110765;1251;41142;-59
2022/04/17 01:27:47;;;;;;;2.50;1.20;;;;;8.10;97625.80;;;;110792;1251;42385;-59
2022/04/17 01:30:18;;;;;;;1.40;1.30;;;;;8.08;97628.80;;;;110661;1252;41266;-59
2022/04/17 01:32:48;;;;;;;1.40;1.30;;;;;8.00;97630.80;;;;110715;1251;42415;-59
2022/04/17 01:35:19;;;;;;;1.70;1.30;;;;;8.00;97629.60;;;;110821;1251;41523;-59
2022/04/17 01:37:50;;;;;;;1.30;1.20;;;;;7.90;97630.00;;;;110726;1251;41459;-59
2022/04/17 01:40:20;;;;;;;1.30;1.20;;;;;7.92;97626.60;;;;110608;1251;41161;-59
2022/04/17 01:42:50;;;;;;;1.30;1.30;;;;;7.90;97633.80;;;;110638;1251;41272;-59
2022/04/17 01:45:20;;;;;;;2.00;1.30;;;;;7.90;97635.80;;;;110519;1251;41889;-59
2022/04/17 01:47:51;;;;;;;1.20;1.20;;;;;7.90;97638.00;;;;110637;1251;41495;-59
2022/04/17 01:50:24;;;;;;;1.80;1.30;;;;;7.90;97633.40;;;;110588;1251;41711;-59
2022/04/17 01:52:54;;;;;;;1.60;1.20;;;;;7.90;97637.20;;;;110713;1251;41740;-59
2022/04/17 01:55:24;;;;;;;1.20;1.20;;;;;7.80;97634.60;;;;110553;1253;41272;-59
2022/04/17 01:57:55;;;;;;;1.40;1.30;;;;;7.90;97635.80;;;;110650;1251;41521;-59
2022/04/17 02:00:27;;;;;;;1.30;1.20;;;;;7.80;97633.20;;;;110502;1251;41579;-59
2022/04/17 02:02:59;;;;;;;1.30;1.20;;;;;7.80;97636.20;;;;110641;1251;41389;-59
2022/04/17 02:05:29;;;;;;;1.80;1.20;;;;;7.80;97640.00;;;;110584;1251;42181;-59
2022/04/17 02:07:59;;;;;;;1.30;1.20;;;;;7.80;97632.00;;;;110686;1251;41526;-61
2022/04/17 02:10:29;;;;;;;1.30;1.20;;;;;7.80;97635.40;;;;110802;1251;42593;-61
2022/04/17 02:13:00;;;;;;;2.00;1.30;;;;;7.80;97635.40;;;;110722;1251;41179;-60
2022/04/17 02:15:30;;;;;;;1.30;1.20;;;;;7.78;97638.40;;;;110812;1249;41273;-60
2022/04/17 02:18:01;;;;;;;1.40;1.30;;;;;7.78;97635.00;;;;110782;1250;41144;-60
2022/04/17 02:20:32;;;;;;;1.30;1.20;;;;;7.70;97632.80;;;;110700;1253;41380;-60
2022/04/17 02:23:04;;;;;;;1.20;1.20;;;;;7.70;97635.20;;;;110636;1251;41356;-60
2022/04/17 02:25:35;;;;;;;1.30;1.20;;;;;7.64;97634.00;;;;110692;1251;41149;-60
2022/04/17 02:28:06;;;;;;;1.30;1.20;;;;;7.60;97630.60;;;;110611;1251;41502;-58
2022/04/17 02:30:37;;;;;;;1.30;1.20;;;;;7.60;97632.60;;;;110666;1251;41623;-59
2022/04/17 02:33:10;;;;;;;1.20;1.20;;;;;7.60;97634.60;;;;110568;1251;41152;-58
2022/04/17 02:35:41;;;;;;;1.40;1.30;;;;;7.60;97638.60;;;;110631;1251;41144;-58
2022/04/17 02:38:14;;;;;;;1.40;1.30;;;;;7.60;97639.60;;;;110697;1251;42173;-58
2022/04/17 02:40:44;;;;;;;1.40;1.30;;;;;7.60;97639.00;;;;110732;1251;41783;-60
2022/04/17 02:43:15;;;;;;;1.40;1.30;;;;;7.60;97644.60;;;;110774;1251;41277;-59
2022/04/17 02:45:46;;;;;;;1.50;1.30;;;;;7.60;97644.80;;;;110786;1251;41167;-60
2022/04/17 02:48:16;;;;;;;2.00;1.30;;;;;7.60;97651.60;;;;110627;1249;41624;-59
2022/04/17 02:50:47;;;;;;;1.50;1.40;;;;;7.50;97653.40;;;;110544;1252;41196;-60
2022/04/17 02:53:17;;;;;;;;;;;;;7.50;97651.60;;;;110752;1251;41004;-60
2022/04/17 02:55:47;;;;;;;1.30;1.20;;;;;7.50;97652.80;;;;110868;1251;41139;-60
2022/04/17 02:58:17;;;;;;;2.10;1.50;;;;;7.40;97649.00;;;;110800;1251;41304;-59
2022/04/17 03:06:25;;;;;;;2.30;1.40;;;;;7.20;97650.20;;;;110720;1251;41781;-60
2022/04/17 03:08:56;;;;;;;1.50;1.40;;;;;7.20;97653.80;;;;110722;1252;41710;-60
2022/04/17 03:11:26;;;;;;;2.00;1.50;;;;;7.20;97653.80;;;;110685;1250;41175;-60
2022/04/17 03:13:56;;;;;;;2.20;1.50;;;;;7.20;97648.60;;;;110568;1251;41258;-60
2022/04/17 03:16:27;;;;;;;3.40;1.60;;;;;7.20;97651.20;;;;110694;1251;42569;-60
2022/04/17 03:18:57;;;;;;;2.50;1.50;;;;;7.16;97646.00;;;;110568;1251;41156;-60
2022/04/17 03:21:27;;;;;;;3.50;1.80;;;;;7.10;97651.20;;;;110792;1250;41268;-60
2022/04/17 03:23:57;;;;;;;3.00;1.60;;;;;7.10;97646.60;;;;110799;1251;41140;-60
2022/04/17 03:26:28;;;;;;;2.20;1.40;;;;;7.10;97652.80;;;;110820;1251;41882;-60
2022/04/17 03:28:59;;;;;;;1.80;1.40;;;;;7.10;97653.20;;;;110724;1250;41142;-60
2022/04/17 03:31:30;;;;;;;;;;;;;7.10;97655.60;;;;110540;1251;41172;-60
2022/04/17 03:34:00;;;;;;;2.80;1.50;;;;;7.10;97651.40;;;;110647;1252;41326;-60
2022/04/17 03:36:31;;;;;;;2.00;1.50;;;;;7.18;97656.20;;;;110672;1251;41169;-60
2022/04/17 03:39:01;;;;;;;3.10;1.50;;;;;7.20;97663.60;;;;110686;1251;41160;-60
2022/04/17 03:41:32;;;;;;;2.80;1.60;;;;;7.20;97661.80;;;;110586;1252;42241;-60
2022/04/17 03:44:05;;;;;;;2.60;1.50;;;;;7.20;97660.40;;;;110777;1251;41655;-60
2022/04/17 03:46:34;;;;;;;3.40;1.60;;;;;7.18;97669.40;;;;110717;1251;41142;-60
2022/04/17 03:49:04;;;;;;;2.40;1.60;;;;;7.20;97665.20;;;;110696;1250;41972;-60
2022/04/17 03:51:34;;;;;;;2.10;1.50;;;;;7.18;97668.20;;;;110702;1251;41156;-60
2022/04/17 03:54:04;;;;;;;;;;;;;7.18;97674.60;;;;110655;1251;41913;-60
2022/04/17 03:56:34;;;;;;;2.60;1.50;;;;;7.14;97678.60;;;;110594;1251;41171;-60
2022/04/17 03:59:03;;;;;;;3.30;1.70;;;;;7.10;97677.20;;;;110732;1249;41174;-60
2022/04/17 04:01:33;;;;;;;2.00;1.50;;;;;7.10;97679.80;;;;110605;1251;41145;-60
2022/04/17 04:04:04;;;;;;;3.00;1.80;;;;;7.10;97684.40;;;;110641;1251;41878;-59
2022/04/17 04:06:34;;;;;;;2.20;1.50;;;;;7.10;97684.40;;;;110662;1250;41410;-60
2022/04/17 04:09:04;;;;;;;2.30;1.50;;;;;7.08;97690.60;;;;110662;1251;42357;-60
2022/04/17 04:11:33;;;;;;;2.60;1.50;;;;;7.10;97683.40;;;;110655;1252;41157;-61
2022/04/17 04:14:05;;;;;;;2.00;1.40;;;;;7.10;97684.60;;;;110615;1251;41196;-62
2022/04/17 04:16:34;;;;;;;2.20;1.40;;;;;7.10;97687.60;;;;110723;1250;41275;-60
2022/04/17 04:19:05;;;;;;;2.40;1.60;;;;;7.10;97687.40;;;;110749;1250;41162;-60
2022/04/17 04:21:47;;;;;;;2.80;1.50;;;;;7.20;97690.40;;;;110785;1249;42129;-60
2022/04/17 04:24:19;;;;;;;3.80;1.70;;;;;7.22;97692.00;;;;110748;1251;41155;-58
2022/04/17 04:29:38;;;;;;;2.40;1.50;;;;;7.30;97692.20;;;;110599;1250;41544;-58
2022/04/17 04:32:08;;;;;;;2.80;1.70;;;;;7.30;97696.80;;;;110671;1249;41149;-59
2022/04/17 04:34:38;;;;;;;3.30;1.70;;;;;7.30;97692.60;;;;110658;1251;41144;-60
2022/04/17 04:37:08;;;;;;;2.70;1.60;;;;;7.30;97686.80;;;;110675;1250;41606;-60
2022/04/17 04:39:38;;;;;;;2.40;1.50;;;;;7.30;97688.60;;;;110681;1250;41153;-59
2022/04/17 04:42:08;;;;;;;2.70;1.60;;;;;7.30;97683.60;;;;110537;1252;41153;-59
2022/04/17 04:44:37;;;;;;;2.70;1.60;;;;;7.30;97689.40;;;;110530;1252;41617;-59
2022/04/17 04:47:06;;;;;;;2.50;1.60;;;;;7.30;97697.00;;;;110772;1252;41158;-60
2022/04/17 04:49:36;;;;;;;2.70;1.60;;;;;7.26;97697.80;;;;110647;1251;41319;-60
2022/04/17 04:52:07;;;;;;;2.40;1.60;;;;;7.28;97696.20;;;;110611;1251;41947;-58
2022/04/17 04:54:37;;;;;;;2.80;1.70;;;;;7.30;97695.00;;;;110649;1251;41267;-57
2022/04/17 04:57:07;;;;;;;3.40;1.60;;;;;7.30;97700.40;;;;110693;1249;41600;-60
2022/04/17 04:59:37;;;;;;;3.90;1.90;;;;;7.30;97706.40;;;;110736;1252;41628;-61
2022/04/17 05:02:06;;;;;;;8.00;2.70;;;;;7.30;97712.60;;;;110746;1251;41492;-60
2022/04/17 05:04:36;;;;;;;5.40;2.30;;;;;7.30;97720.60;;;;110577;1253;41853;-60
2022/04/17 05:07:05;;;;;;;5.00;2.20;;;;;7.30;97722.20;;;;110646;1251;41136;-60
2022/04/17 05:09:34;;;;;;;4.10;1.80;;;;;7.30;97720.20;;;;110713;1252;41161;-60
2022/04/17 05:12:05;;;;;;;3.00;1.70;;;;;7.30;97716.00;;;;110756;1251;41262;-58
2022/04/17 05:14:34;;;;;;;4.20;1.70;;;;;7.30;97709.40;;;;110542;1252;41393;-60
2022/04/17 05:17:03;;;;;;;3.60;1.70;;;;;7.30;97706.00;;;;110629;1252;42137;-59
2022/04/17 05:19:33;;;;;;;3.70;1.70;;;;;7.30;97701.80;;;;110769;1250;42398;-60
2022/04/17 05:22:02;;;;;;;5.00;1.90;;;;;7.30;97692.20;;;;110795;1250;41946;-59
2022/04/17 05:24:32;;;;;;;2.90;1.70;;;;;7.40;97698.40;;;;110630;1251;43142;-60
2022/04/17 05:27:01;;;;;;;3.70;1.90;;;;;7.40;97696.00;;;;110810;1251;41383;-60
2022/04/17 05:29:31;;;;;;;3.40;1.80;;;;;7.40;97700.60;;;;110761;1251;42078;-59
2022/04/17 05:32:01;;;;;;;2.80;1.60;;;;;7.38;97700.80;;;;110758;1250;41260;-59
2022/04/17 05:34:30;;;;;;;2.20;1.60;;;;;7.30;97712.80;;;;110583;1252;41134;-58
2022/04/17 05:36:59;;;;;;;2.60;1.60;;;;;7.40;97710.20;;;;110739;1251;41165;-59
2022/04/17 05:39:29;;;;;;;3.30;1.70;;;;;7.40;97713.40;;;;110763;1249;41901;-59
2022/04/17 05:41:59;;;;;;;2.60;1.60;;;;;7.40;97717.80;;;;110651;1250;41255;-59
2022/04/17 05:44:29;;;;;;;2.40;1.60;;;;;7.40;97725.20;;;;110811;1251;41626;-60
2022/04/17 05:46:59;;;;;;;3.10;1.70;;;;;7.40;97731.20;;;;110701;1250;41190;-60
2022/04/17 05:49:28;;;;;;;2.10;1.50;;;;;7.40;97725.80;;;;110587;1251;41210;-61
2022/04/17 05:51:57;;;;;;;4.70;2.00;;;;;7.30;97727.60;;;;110631;1252;41170;-59
2022/04/17 05:54:28;;;;;;;4.80;1.80;;;;;7.30;97738.80;;;;110604;1252;41629;-60
2022/04/17 05:56:57;;;;;;;5.00;2.00;;;;;7.20;97747.60;;;;110467;1253;42485;-59
2022/04/17 05:59:26;;;;;;;5.90;2.30;;;;;7.10;97757.20;;;;110787;1251;41149;-58
2022/04/17 06:01:56;;;;;;;4.20;2.00;;;;;7.00;97766.40;;;;110754;1249;41159;-61
2022/04/17 06:04:25;;;;;;;2.30;1.60;;;;;6.90;97773.80;;;;110629;1250;41616;-61
2022/04/17 06:06:54;;;;;;;5.40;2.40;;;;;6.80;97773.80;;;;110481;1253;41609;-59
2022/04/17 06:09:23;;;;;;;5.30;2.00;;;;;6.70;97767.60;;;;110584;1252;41166;-59
2022/04/17 06:11:52;;;;;;;3.00;1.70;;;;;6.50;97761.00;;;;110614;1252;41546;-59
2022/04/17 06:14:22;;;;;;;2.60;1.60;;;;;6.50;97754.40;;;;110641;1250;41133;-59
2022/04/17 06:16:51;;;;;;;3.30;1.70;;;;;6.50;97754.20;;;;110762;1251;41163;-61
2022/04/17 06:19:20;;;;;;;2.70;1.70;;;;;6.50;97751.60;;;;110655;1252;41627;-60
2022/04/17 06:21:49;;;;;;;3.90;1.90;;;;;6.50;97762.00;;;;110796;1250;41675;-60
2022/04/17 06:24:19;;;;;;;4.30;1.90;;;;;6.50;97769.20;;;;110726;1251;41148;-60
2022/04/17 06:26:48;;;;;;;3.40;1.70;;;;;6.50;97775.00;;;;110153;1251;732536;-60
2022/04/17 06:29:17;;;;;;;3.90;1.90;;;;;6.50;97775.80;;;;110512;1253;41271;-59
2022/04/17 06:31:46;;;;;;;2.80;1.70;;;;;6.50;97773.80;;;;110583;1250;41192;-60
2022/04/17 06:34:16;;;;;;;3.20;1.70;;;;;6.60;97771.20;;;;110685;1249;41547;-59
2022/04/17 06:36:45;;;;;;;4.10;1.80;;;;;6.68;97768.20;;;;110691;1249;41318;-59
2022/04/17 06:39:14;;;;;;;3.50;1.80;;;;;6.70;97776.20;;;;110723;1250;41217;-60
2022/04/17 06:41:44;;;;;;;4.40;1.80;;;;;6.80;97779.60;;;;110662;1250;41180;-60
2022/04/17 06:44:14;;;;;;;3.50;1.80;;;;;6.80;97780.20;;;;110554;1251;42396;-59
2022/04/17 06:46:44;;;;;;;6.00;2.60;;;;;6.90;97786.20;;;;110761;1251;41152;-60
2022/04/17 06:49:14;;;;;;;5.60;2.20;;;;;6.90;97787.20;;;;110686;1251;41642;-59
2022/04/17 06:51:43;;;;;;;5.90;2.20;;;;;6.92;97788.60;;;;110721;1250;41583;-59
2022/04/17 06:54:11;;;;;;;6.00;2.10;;;;;6.90;97790.80;;;;110743;1251;41167;-59
2022/04/17 06:56:40;;;;;;;5.00;2.10;;;;;6.90;97787.80;;;;110827;1250;41151;-60
2022/04/17 06:59:12;;;;;;;5.20;2.00;;;;;7.00;97791.00;;;;110568;1251;41147;-60
2022/04/17 07:01:43;;;;;;;3.00;1.70;;;;;7.00;97780.60;;;;110673;1249;41642;-60
2022/04/17 07:04:12;;;;;;;3.90;1.80;;;;;7.10;97773.40;;;;110716;1251;41796;-60
2022/04/17 07:06:44;;;;;;;4.20;2.00;;;;;7.04;97786.00;;;;110768;1249;41945;-60
2022/04/17 07:09:14;;;;;;;4.20;1.90;;;;;7.00;97785.20;;;;110820;1251;41942;-60
2022/04/17 07:11:43;;;;;;;3.30;1.80;;;;;6.90;97787.20;;;;110606;1252;41966;-60
2022/04/17 07:14:14;;;;;;;5.40;2.20;;;;;7.00;97786.60;;;;110698;1252;41936;-60
2022/04/17 07:16:47;;;;;;;4.90;2.20;;;;;7.10;97792.60;;;;110783;1249;41951;-60
2022/04/17 07:19:16;;;;;;;4.80;2.10;;;;;7.10;97794.40;;;;110715;1251;41619;-60
2022/04/17 07:21:46;;;;;;;5.30;2.40;;;;;7.10;97793.80;;;;110740;1249;41135;-60
2022/04/17 07:24:15;;;;;;;5.30;2.20;;;;;7.10;97790.40;;;;110721;1251;41230;-60
2022/04/17 07:26:44;;;;;;;4.90;2.30;;;;;7.10;97795.20;;;;110736;1249;41630;-60
2022/04/17 07:29:13;;;;;;;5.60;2.00;;;;;7.12;97794.00;;;;110702;1251;42407;-60
2022/04/17 07:31:43;;;;;;;5.30;2.30;;;;;7.20;97793.80;;;;110670;1250;41138;-60
2022/04/17 07:34:12;;;;;;;5.80;2.50;;;;;7.30;97795.40;;;;110625;1252;41169;-60
2022/04/17 07:36:42;;;;;;;5.00;2.30;;;;;7.20;97798.00;;;;110772;1251;41630;-59
2022/04/17 07:39:33;;;;;;;5.10;2.20;;;;;7.20;97796.00;;;;110833;1251;42399;-59
2022/04/17 07:42:07;;;;;;;8.20;3.20;;;;;7.26;97796.60;;;;110914;1250;41714;-60
2022/04/17 07:44:37;;;;;;;5.60;2.40;;;;;7.38;97797.80;;;;110714;1250;41208;-60
2022/04/17 07:47:11;;;;;;;4.50;2.10;;;;;7.44;97796.80;;;;110703;1251;41263;-60
2022/04/17 07:49:45;;;;;;;6.70;2.40;;;;;7.56;97789.00;;;;110564;1252;41271;-59
2022/04/17 07:52:14;;;;;;;5.60;2.30;;;;;7.70;97788.00;;;;110753;1250;41137;-60
2022/04/17 07:54:49;;;;;;;7.40;2.70;;;;;7.72;97792.20;;;;110742;1251;41609;-60
2022/04/17 07:57:18;;;;;;;4.70;2.00;;;;;7.80;97793.00;;;;110593;1251;42083;-60
2022/04/17 07:59:50;;;;;;;4.80;2.00;;;;;7.80;97786.00;;;;110693;1251;41209;-60
2022/04/17 08:02:50;;;;;;;4.10;1.80;;;;;7.90;97788.40;;;;110639;1251;41243;-60
2022/04/17 08:05:23;;;;;;;4.60;2.00;;;;;8.00;97793.60;;;;110635;1252;41270;-60
2022/04/17 08:07:52;;;;;;;3.40;1.70;;;;;8.00;97791.20;;;;110702;1251;42016;-59
2022/04/17 08:10:22;;;;;;;4.00;1.80;;;;;8.12;97791.60;;;;110552;1249;42402;-60
2022/04/17 08:12:51;;;;;;;6.30;2.30;;;;;8.20;97790.60;;;;110805;1249;41151;-60
2022/04/17 08:15:20;;;;;;;6.10;2.30;;;;;8.30;97784.80;;;;110799;1249;41404;-60
2022/04/17 08:17:50;;;;;;;6.00;2.00;;;;;8.30;97784.00;;;;110720;1250;41275;-59
2022/04/17 08:20:20;;;;;;;4.10;2.00;;;;;8.30;97784.00;;;;110754;1251;41378;-60
2022/04/17 08:22:49;;;;;;;3.80;1.80;;;;;8.34;97782.20;;;;110607;1252;41515;-60
2022/04/17 08:25:18;;;;;;;2.60;1.70;;;;;8.40;97782.00;;;;110658;1251;41616;-60
2022/04/17 08:27:50;;;;;;;2.90;1.70;;;;;8.50;97786.20;;;;110691;1251;41611;-59
2022/04/17 08:30:26;;;;;;;4.40;1.80;;;;;8.60;97785.80;;;;110411;1254;41304;-59
2022/04/17 08:32:55;;;;;;;4.60;2.00;;;;;8.70;97784.60;;;;110704;1251;41934;-58
2022/04/17 08:35:24;;;;;;;3.40;1.70;;;;;8.70;97776.60;;;;110405;1251;41283;-59
2022/04/17 08:37:57;;;;;;;5.50;2.10;;;;;8.70;97774.60;;;;110781;1250;41129;-59
2022/04/17 08:40:30;;;;;;;4.50;2.10;;;;;8.78;97773.20;;;;110765;1251;41816;-60
2022/04/17 08:43:00;;;;;;;6.00;2.30;;;;;8.80;97775.40;;;;110700;1249;41930;-59
2022/04/17 08:45:29;;;;;;;4.80;2.10;;;;;8.80;97770.60;;;;110717;1252;41166;-59
2022/04/17 08:47:58;;;;;;;4.00;1.90;;;;;8.80;97775.80;;;;110624;1251;42734;-59
2022/04/17 08:50:27;;;;;;;4.20;2.00;;;;;8.70;97772.40;;;;110561;1252;41257;-59
2022/04/17 08:52:58;;;;;;;15.10;3.80;;;;;8.70;97773.20;;;;110825;1249;41927;-60
2022/04/17 08:55:27;;;;;;;3.80;2.10;;;;;8.70;97774.20;;;;110707;1250;41141;-60
2022/04/17 08:57:56;;;;;;;5.40;2.20;;;;;8.68;97772.20;;;;110510;1250;42379;-59
2022/04/17 09:00:25;;;;;;;3.10;1.80;;;;;8.60;97770.80;;;;110734;1249;41172;-60
2022/04/17 09:02:54;;;;;;;3.30;1.80;;;;;8.70;97766.40;;;;110653;1251;41268;-60
2022/04/17 09:05:25;;;;;;;3.70;1.80;;;;;8.80;97765.40;;;;110714;1249;41204;-59
2022/04/17 09:08:13;;;;;;;3.40;1.80;;;;;9.00;97757.20;;;;110607;1252;42213;-59
2022/04/17 09:10:56;;;;;;;3.50;1.90;;;;;9.10;97761.60;;;;110643;1251;41946;-59
2022/04/17 09:13:33;;;;;;;3.20;1.80;;;;;9.20;97758.40;;;;110473;1253;41336;-59
2022/04/17 09:16:04;;;;;;;4.20;1.80;;;;;9.30;97764.40;;;;110599;1251;41869;-59
2022/04/17 09:18:38;;;;;;;5.30;1.80;;;;;9.40;97765.20;;;;110683;1251;42161;-60
2022/04/17 09:21:32;;;;;;;3.50;1.90;;;;;9.50;97763.40;;;;110652;1252;41180;-60
2022/04/17 09:24:19;;;;;;;3.40;1.80;;;;;9.60;97761.40;;;;110727;1250;42697;-60
2022/04/17 09:26:52;;;;;;;3.70;1.90;;;;;9.66;97755.60;;;;110686;1251;41253;-59
2022/04/17 09:29:36;;;;;;;4.60;1.90;;;;;9.74;97754.60;;;;110520;1251;41150;-59
2022/04/17 09:32:11;;;;;;;4.50;2.10;;;;;9.80;97755.60;;;;110579;1252;41159;-60
2022/04/17 09:34:52;;;;;;;3.80;1.80;;;;;9.70;97751.40;;;;110593;1251;41137;-59
2022/04/17 09:37:23;;;;;;;4.40;2.00;;;;;9.44;97751.80;;;;110715;1251;41155;-59
2022/04/17 09:39:52;;;;;;;4.50;2.10;;;;;9.26;97750.80;;;;110693;1249;41193;-59
2022/04/17 09:42:26;;;;;;;4.60;2.00;;;;;9.20;97750.40;;;;110732;1250;41270;-59
2022/04/17 09:44:55;;;;;;;4.10;1.90;;;;;9.18;97750.80;;;;110615;1253;41952;-60
2022/04/17 09:47:28;;;;;;;4.60;2.10;;;;;9.10;97754.20;;;;110654;1251;41147;-60
2022/04/17 09:50:03;;;;;;;4.30;2.00;;;;;9.10;97745.60;;;;110728;1250;41148;-60
2022/04/17 09:52:41;;;;;;;4.20;1.90;;;;;9.00;97744.40;;;;110622;1251;41383;-60
2022/04/17 09:55:11;;;;;;;6.40;2.70;;;;;9.10;97741.40;;;;110671;1251;41761;-60
2022/04/17 09:57:43;;;;;;;3.60;1.80;;;;;9.10;97742.80;;;;110623;1251;41867;-59
2022/04/17 10:00:18;;;;;;;4.90;2.20;;;;;9.10;97742.60;;;;110733;1250;41253;-58
2022/04/17 10:02:47;;;;;;;3.90;1.70;;;;;9.26;97738.40;;;;110679;1249;41688;-61
2022/04/17 10:05:20;;;;;;;6.60;2.50;;;;;9.30;97741.20;;;;110790;1249;41169;-61
2022/04/17 10:07:50;;;;;;;6.20;2.40;;;;;9.48;97729.80;;;;110864;1249;41225;-61
2022/04/17 10:10:19;;;;;;;4.80;2.00;;;;;9.60;97728.80;;;;110730;1249;41340;-61
2022/04/17 10:12:48;;;;;;;4.60;2.20;;;;;9.70;97721.40;;;;110819;1249;42374;-61
2022/04/17 10:15:17;;;;;;;5.40;2.30;;;;;9.80;97720.60;;;;110834;1250;41153;-59
2022/04/17 10:17:48;;;;;;;5.80;2.50;;;;;9.90;97725.00;;;;110710;1249;41394;-60
2022/04/17 10:20:17;;;;;;;5.40;2.20;;;;;9.90;97719.80;;;;110480;1252;41164;-58
2022/04/17 10:22:57;;;;;;;7.30;2.90;;;;;9.90;97716.00;;;;110820;1250;41132;-61
2022/04/17 10:25:27;;;;;;;6.70;2.40;;;;;10.24;97714.20;;;;110737;1249;41625;-60
2022/04/17 10:27:59;;;;;;;4.40;2.10;;;;;10.84;97701.60;;;;110901;1250;41267;-60
2022/04/17 10:30:42;;;;;;;4.40;1.90;;;;;11.30;97690.20;;;;110759;1250;41173;-57
2022/04/17 10:33:33;;;;;;;3.70;1.80;;;;;11.68;97686.40;;;;110723;1251;41275;-60
2022/04/17 10:36:27;;;;;;;9.60;3.40;;;;;12.00;97678.00;;;;110621;1252;41138;-59
2022/04/17 10:39:13;;;;;;;4.20;2.10;;;;;12.56;97679.00;;;;110738;1251;41364;-60
2022/04/17 10:41:43;;;;;;;3.10;1.70;;;;;13.34;97672.80;;;;110802;1251;41986;-59
2022/04/17 10:44:12;;;;;;;4.50;2.00;;;;;13.92;97665.00;;;;110745;1250;41655;-61
2022/04/17 10:46:51;;;;;;;5.00;2.00;;;;;14.30;97655.60;;;;110737;1251;41963;-58
2022/04/17 10:49:29;;;;;;;5.00;2.00;;;;;14.28;97643.20;;;;110732;1250;41352;-59
2022/04/17 10:52:04;;;;;;;5.00;2.00;;;;;14.74;97638.60;;;;110741;1249;41157;-59
2022/04/17 10:55:15;;;;;;;5.10;2.10;;;;;16.34;97630.60;;;;110629;1252;41761;-62
2022/04/17 10:57:45;;;;;;;3.90;1.90;;;;;17.08;97644.60;;;;110699;1252;41820;-61
2022/04/17 11:00:37;;;;;;;2.40;1.60;;;;;17.20;97637.20;;;;110790;1252;41455;-60
2022/04/17 11:03:26;;;;;;;3.00;1.60;;;;;17.70;97628.20;;;;110770;1250;41655;-61
2022/04/17 11:06:12;;;;;;;2.50;1.50;;;;;17.64;97628.40;;;;110696;1251;41162;-60
2022/04/17 11:08:48;;;;;;;3.70;1.50;;;;;17.30;97629.40;;;;110518;1252;41287;-60
2022/04/17 11:11:17;;;;;;;2.40;1.50;;;;;17.22;97627.00;;;;110716;1250;41257;-60
2022/04/17 11:14:11;;;;;;;2.30;1.40;;;;;17.10;97623.40;;;;110755;1249;41152;-59
2022/04/17 11:16:46;;;;;;;3.40;1.70;;;;;17.00;97619.00;;;;110786;1249;41147;-60
2022/04/17 11:19:18;;;;;;;2.30;1.50;;;;;17.20;97616.40;;;;110831;1250;41265;-60
2022/04/17 11:21:50;;;;;;;2.80;1.60;;;;;17.70;97615.40;;;;110613;1250;42212;-60
2022/04/17 11:24:21;;;;;;;1.80;1.40;;;;;17.94;97609.20;;;;110760;1251;42651;-59
2022/04/17 11:26:53;;;;;;;1.50;1.30;;;;;17.80;97619.60;;;;110797;1251;41553;-60
2022/04/17 11:29:40;;;;;;;3.00;1.50;;;;;17.80;97617.60;;;;110737;1251;41257;-60
2022/04/17 11:32:18;;;;;;;2.40;1.40;;;;;17.70;97618.20;;;;110717;1251;41497;-59
2022/04/17 11:34:52;;;;;;;2.90;1.60;;;;;17.90;97615.60;;;;110810;1250;41130;-61
2022/04/17 11:37:26;;;;;;;1.80;1.30;;;;;17.80;97615.80;;;;110765;1251;41730;-59
2022/04/17 11:40:00;;;;;;;2.60;1.50;;;;;17.80;97613.40;;;;110646;1251;41283;-60
2022/04/17 11:42:29;;;;;;;3.00;1.50;;;;;17.70;97611.20;;;;110758;1250;41154;-59
2022/04/17 11:45:05;;;;;;;3.20;1.60;;;;;17.42;97614.40;;;;110767;1251;42378;-59
2022/04/17 11:47:39;;;;;;;2.40;1.40;;;;;17.16;97614.00;;;;110750;1250;41444;-61
2022/04/17 11:50:10;;;;;;;3.00;1.60;;;;;16.90;97618.40;;;;110759;1250;41163;-60
2022/04/17 11:52:39;;;;;;;3.00;1.60;;;;;16.54;97606.80;;;;110776;1251;41266;-61
2022/04/17 11:55:08;;;;;;;2.90;1.50;;;;;16.20;97616.80;;;;110602;1252;41608;-62
2022/04/17 11:57:38;;;;;;;3.10;1.60;;;;;15.80;97617.20;;;;110696;1249;41171;-62
2022/04/17 12:00:08;;;;;;;2.50;1.70;;;;;15.40;97615.40;;;;110764;1250;41172;-60
2022/04/17 12:02:37;;;;;;;3.30;1.70;;;;;15.10;97613.40;;;;110700;1250;41394;-60
2022/04/17 12:05:08;;;;;;;2.40;1.50;;;;;14.80;97608.40;;;;110616;1252;41814;-60
2022/04/17 12:07:37;;;;;;;2.60;1.50;;;;;14.56;97610.60;;;;110488;1252;41425;-60
2022/04/17 12:10:09;;;;;;;2.20;1.50;;;;;14.40;97605.60;;;;110397;1254;41163;-61
2022/04/17 12:12:43;;;;;;;1.80;1.40;;;;;14.30;97605.40;;;;110490;1252;41163;-59
2022/04/17 12:15:14;;;;;;;2.40;1.40;;;;;14.30;97601.60;;;;110565;1252;41162;-61
2022/04/17 12:17:44;;;;;;;4.20;1.60;;;;;14.30;97604.00;;;;110586;1252;41142;-59
2022/04/17 12:20:14;;;;;;;2.80;1.60;;;;;14.40;97601.40;;;;110715;1250;41180;-61
2022/04/17 12:22:43;;;;;;;2.90;1.70;;;;;14.40;97597.40;;;;110703;1251;41187;-61
2022/04/17 12:25:21;;;;;;;2.20;1.50;;;;;14.40;97588.80;;;;110430;1253;41167;-59
2022/04/17 12:27:52;;;;;;;2.50;1.60;;;;;14.62;97583.40;;;;110849;1250;41610;-62
2022/04/17 12:30:23;;;;;;;3.50;1.80;;;;;14.82;97579.80;;;;110815;1251;41270;-61
2022/04/17 12:32:59;;;;;;;3.20;1.80;;;;;15.00;97574.80;;;;110863;1250;41157;-61
2022/04/17 12:35:32;;;;;;;4.60;1.90;;;;;15.38;97571.20;;;;110728;1250;41994;-60
2022/04/17 12:38:10;;;;;;;3.40;1.80;;;;;15.50;97563.00;;;;110560;1252;42137;-60
2022/04/17 12:40:45;;;;;;;3.20;1.80;;;;;15.80;97557.80;;;;110606;1252;42081;-60
2022/04/17 12:43:17;;;;;;;4.30;1.90;;;;;16.24;97554.40;;;;110689;1251;41859;-60
2022/04/17 12:45:54;;;;;;;2.20;1.60;;;;;16.68;97553.40;;;;110806;1251;41265;-60
2022/04/17 12:48:25;;;;;;;3.30;1.70;;;;;16.80;97545.60;;;;110836;1250;41179;-59
2022/04/17 12:50:56;;;;;;;3.20;1.70;;;;;16.80;97541.00;;;;110807;1252;41149;-60